sensor_id;sensor_type;location;lat;lon;timestamp;pressure;altitude;pressure_sealevel;temperature;humidity
10921;BME280;5513;50.580;8.818;2023-04-25T00:01:58;98369.72;;;9.30;100.00
10921;BME280;5513;50.580;8.818;2023-04-25T00:04:27;98367.91;;;9.30;100.00
10921;BME280;5513;50.580;8.818;2023-04-25T00:06:57;98363.34;;;9.32;100.00
10921;BME280;5513;50.580;8.818;2023-04-25T00:09:25;98370.56;;;9.30;100.00
10921;BME280;5513;50.580;8.818;2023-04-25T00:11:56;98358.81;;;9.34;100.00
10921;BME280;5513;50.580;8.818;2023-04-25T00:14:24;98370.13;;;9.24;100.00
10921;BME280;5513;50.580;8.818;2023-04-25T00:16:52;98373.31;;;9.29;100.00
10921;BME280;5513;50.580;8.818;2023-04-25T00:19:20;98371.66;;;9.02;100.00
10921;BME280;5513;50.580;8.818;2023-04-25T00:21:49;98364.69;;;9.01;100.00
10921;BME280;5513;50.580;8.818;2023-04-25T00:24:17;98365.56;;;8.89;100.00
10921;BME280;5513;50.580;8.818;2023-04-25T00:26:45;98369.56;;;9.07;100.00
10921;BME280;5513;50.580;8.818;2023-04-25T00:29:15;98375.38;;;9.00;100.00
10921;BME280;5513;50.580;8.818;2023-04-25T00:31:44;98372.53;;;8.90;100.00
10921;BME280;5513;50.580;8.818;2023-04-25T00:34:12;98375.69;;;9.08;100.00
10921;BME280;5513;50.580;8.818;2023-04-25T00:36:40;98369.44;;;8.96;100.00
10921;BME280;5513;50.580;8.818;2023-04-25T00:39:08;98367.97;;;9.05;100.00
10921;BME280;5513;50.580;8.818;2023-04-25T00:41:37;98364.06;;;9.10;100.00
10921;BME280;5513;50.580;8.818;2023-04-25T00:44:05;98366.47;;;9.13;100.00
10921;BME280;5513;50.580;8.818;2023-04-25T00:46:35;98361.81;;;9.17;100.00
10921;BME280;5513;50.580;8.818;2023-04-25T00:49:03;98360.03;;;9.05;100.00
10921;BME280;5513;50.580;8.818;2023-04-25T00:51:32;98365.13;;;9.08;100.00
10921;BME280;5513;50.580;8.818;2023-04-25T00:54:00;98362.25;;;9.11;100.00
10921;BME280;5513;50.580;8.818;2023-04-25T00:56:29;98359.53;;;9.00;100.00
10921;BME280;5513;50.580;8.818;2023-04-25T00:58:57;98353.06;;;9.04;100.00
10921;BME280;5513;50.580;8.818;2023-04-25T01:01:26;98354.88;;;9.03;100.00
10921;BME280;5513;50.580;8.818;2023-04-25T01:03:58;98351.59;;;8.87;100.00
10921;BME280;5513;50.580;8.818;2023-04-25T01:06:26;98349.38;;;8.94;100.00
10921;BME280;5513;50.580;8.818;2023-04-25T01:08:55;98347.94;;;8.89;100.00
10921;BME280;5513;50.580;8.818;2023-04-25T01:11:24;98342.41;;;8.93;100.00
10921;BME280;5513;50.580;8.818;2023-04-25T01:13:52;98347.38;;;8.84;100.00
10921;BME280;5513;50.580;8.818;2023-04-25T01:16:20;98348.47;;;8.82;100.00
10921;BME280;5513;50.580;8.818;2023-04-25T01:18:51;98346.47;;;8.73;100.00
10921;BME280;5513;50.580;8.818;2023-04-25T01:21:20;98342.53;;;8.66;100.00
10921;BME280;5513;50.580;8.818;2023-04-25T01:23:49;98344.34;;;8.65;100.00
10921;BME280;5513;50.580;8.818;2023-04-25T01:26:18;98342.53;;;8.66;100.00
10921;BME280;5513;50.580;8.818;2023-04-25T01:28:48;98348.78;;;8.65;100.00
10921;BME280;5513;50.580;8.818;2023-04-25T01:31:16;98338.75;;;8.70;100.00
10921;BME280;5513;50.580;8.818;2023-04-25T01:33:47;98342.16;;;8.59;100.00
10921;BME280;5513;50.580;8.818;2023-04-25T01:36:15;98342.56;;;8.40;100.00
10921;BME280;5513;50.580;8.818;2023-04-25T01:38:47;98342.75;;;8.37;100.00
10921;BME280;5513;50.580;8.818;2023-04-25T01:41:15;98343.88;;;8.33;100.00
10921;BME280;5513;50.580;8.818;2023-04-25T01:43:44;98347.16;;;8.24;100.00
10921;BME280;5513;50.580;8.818;2023-04-25T01:46:13;98346.41;;;8.22;100.00
10921;BME280;5513;50.580;8.818;2023-04-25T01:48:41;98346.81;;;8.28;100.00
10921;BME280;5513;50.580;8.818;2023-04-25T01:51:09;98346.31;;;8.23;100.00
10921;BME280;5513;50.580;8.818;2023-04-25T01:53:38;98352.72;;;8.19;100.00
10921;BME280;5513;50.580;8.818;2023-04-25T01:56:08;98350.50;;;8.13;100.00
10921;BME280;5513;50.580;8.818;2023-04-25T01:58:36;98344.56;;;8.10;100.00
10921;BME280;5513;50.580;8.818;2023-04-25T02:01:04;98346.59;;;8.06;100.00
10921;BME280;5513;50.580;8.818;2023-04-25T02:03:33;98342.25;;;8.05;100.00
10921;BME280;5513;50.580;8.818;2023-04-25T02:06:02;98333.38;;;7.93;100.00
10921;BME280;5513;50.580;8.818;2023-04-25T02:08:30;98337.16;;;7.89;100.00
10921;BME280;5513;50.580;8.818;2023-04-25T02:10:58;98344.78;;;7.94;100.00
10921;BME280;5513;50.580;8.818;2023-04-25T02:13:28;98347.75;;;8.02;100.00
10921;BME280;5513;50.580;8.818;2023-04-25T02:15:56;98340.69;;;8.02;100.00
10921;BME280;5513;50.580;8.818;2023-04-25T02:18:25;98345.72;;;7.93;100.00
10921;BME280;5513;50.580;8.818;2023-04-25T02:20:54;98338.66;;;7.93;100.00
10921;BME280;5513;50.580;8.818;2023-04-25T02:23:22;98341.56;;;7.76;100.00
10921;BME280;5513;50.580;8.818;2023-04-25T02:25:50;98345.38;;;7.85;100.00
10921;BME280;5513;50.580;8.818;2023-04-25T02:28:19;98345.59;;;7.82;100.00
10921;BME280;5513;50.580;8.818;2023-04-25T02:30:49;98346.81;;;7.76;100.00
10921;BME280;5513;50.580;8.818;2023-04-25T02:33:17;98348.06;;;7.70;100.00
10921;BME280;5513;50.580;8.818;2023-04-25T02:35:47;98349.84;;;7.70;100.00
10921;BME280;5513;50.580;8.818;2023-04-25T02:38:16;98346.09;;;7.47;100.00
10921;BME280;5513;50.580;8.818;2023-04-25T02:40:44;98349.22;;;7.39;100.00
10921;BME280;5513;50.580;8.818;2023-04-25T02:43:12;98350.84;;;7.28;100.00
10921;BME280;5513;50.580;8.818;2023-04-25T02:45:40;98349.72;;;7.17;100.00
10921;BME280;5513;50.580;8.818;2023-04-25T02:48:10;98347.38;;;7.13;100.00
10921;BME280;5513;50.580;8.818;2023-04-25T02:50:38;98347.47;;;7.11;100.00
10921;BME280;5513;50.580;8.818;2023-04-25T02:53:06;98352.31;;;7.05;100.00
10921;BME280;5513;50.580;8.818;2023-04-25T02:55:35;98345.88;;;7.09;100.00
10921;BME280;5513;50.580;8.818;2023-04-25T02:58:03;98348.41;;;7.10;100.00
10921;BME280;5513;50.580;8.818;2023-04-25T03:00:31;98358.13;;;6.96;100.00
10921;BME280;5513;50.580;8.818;2023-04-25T03:02:59;98355.41;;;6.97;100.00
10921;BME280;5513;50.580;8.818;2023-04-25T03:05:29;98358.88;;;6.83;100.00
10921;BME280;5513;50.580;8.818;2023-04-25T03:07:58;98353.22;;;6.75;100.00
10921;BME280;5513;50.580;8.818;2023-04-25T03:10:26;98363.69;;;6.77;100.00
10921;BME280;5513;50.580;8.818;2023-04-25T03:12:54;98364.06;;;6.71;100.00
10921;BME280;5513;50.580;8.818;2023-04-25T03:15:23;98364.97;;;6.55;100.00
10921;BME280;5513;50.580;8.818;2023-04-25T03:17:51;98359.72;;;6.55;100.00
10921;BME280;5513;50.580;8.818;2023-04-25T03:20:19;98365.16;;;6.52;100.00
10921;BME280;5513;50.580;8.818;2023-04-25T03:22:51;98365.06;;;6.40;100.00
10921;BME280;5513;50.580;8.818;2023-04-25T03:25:19;98365.53;;;6.32;100.00
10921;BME280;5513;50.580;8.818;2023-04-25T03:27:47;98374.16;;;6.34;100.00
10921;BME280;5513;50.580;8.818;2023-04-25T03:30:15;98372.81;;;6.27;100.00
10921;BME280;5513;50.580;8.818;2023-04-25T03:32:44;98372.16;;;6.23;100.00
10921;BME280;5513;50.580;8.818;2023-04-25T03:35:12;98374.88;;;6.22;100.00
10921;BME280;5513;50.580;8.818;2023-04-25T03:37:40;98373.56;;;6.15;100.00
10921;BME280;5513;50.580;8.818;2023-04-25T03:40:13;98380.28;;;6.05;100.00
10921;BME280;5513;50.580;8.818;2023-04-25T03:42:41;98382.34;;;5.99;100.00
10921;BME280;5513;50.580;8.818;2023-04-25T03:45:10;98380.91;;;5.94;100.00
10921;BME280;5513;50.580;8.818;2023-04-25T03:47:39;98379.78;;;5.98;100.00
10921;BME280;5513;50.580;8.818;2023-04-25T03:50:09;98380.16;;;5.92;100.00
10921;BME280;5513;50.580;8.818;2023-04-25T03:52:37;98385.50;;;5.90;100.00
10921;BME280;5513;50.580;8.818;2023-04-25T03:55:05;98375.91;;;5.89;100.00
10921;BME280;5513;50.580;8.818;2023-04-25T03:57:36;98378.59;;;5.88;100.00
10921;BME280;5513;50.580;8.818;2023-04-25T04:00:05;98379.38;;;5.90;100.00
10921;BME280;5513;50.580;8.818;2023-04-25T04:02:34;98392.00;;;5.83;100.00
10921;BME280;5513;50.580;8.818;2023-04-25T04:05:04;98393.28;;;5.92;100.00
10921;BME280;5513;50.580;8.818;2023-04-25T04:07:33;98387.19;;;5.91;100.00
10921;BME280;5513;50.580;8.818;2023-04-25T04:10:07;98387.75;;;5.96;100.00
10921;BME280;5513;50.580;8.818;2023-04-25T04:12:37;98390.13;;;6.01;100.00
10921;BME280;5513;50.580;8.818;2023-04-25T04:15:06;98391.81;;;6.02;100.00
10921;BME280;5513;50.580;8.818;2023-04-25T04:17:34;98388.25;;;6.03;100.00
10921;BME280;5513;50.580;8.818;2023-04-25T04:20:03;98392.88;;;5.99;100.00
10921;BME280;5513;50.580;8.818;2023-04-25T04:22:32;98395.75;;;5.95;100.00
10921;BME280;5513;50.580;8.818;2023-04-25T04:25:00;98393.78;;;5.98;100.00
10921;BME280;5513;50.580;8.818;2023-04-25T04:27:29;98399.97;;;5.97;100.00
10921;BME280;5513;50.580;8.818;2023-04-25T04:29:58;98397.19;;;6.00;100.00
10921;BME280;5513;50.580;8.818;2023-04-25T04:32:27;98400.22;;;5.77;100.00
10921;BME280;5513;50.580;8.818;2023-04-25T04:34:57;98397.84;;;6.04;100.00
10921;BME280;5513;50.580;8.818;2023-04-25T04:37:26;98405.53;;;6.07;100.00
10921;BME280;5513;50.580;8.818;2023-04-25T04:39:54;98405.53;;;6.07;100.00
10921;BME280;5513;50.580;8.818;2023-04-25T04:42:23;98403.00;;;6.06;100.00
10921;BME280;5513;50.580;8.818;2023-04-25T04:44:52;98399.19;;;6.11;100.00
10921;BME280;5513;50.580;8.818;2023-04-25T04:47:23;98400.28;;;6.07;100.00
10921;BME280;5513;50.580;8.818;2023-04-25T04:49:52;98411.91;;;6.03;100.00
10921;BME280;5513;50.580;8.818;2023-04-25T04:52:20;98404.63;;;6.08;100.00
10921;BME280;5513;50.580;8.818;2023-04-25T04:54:48;98402.25;;;6.03;100.00
10921;BME280;5513;50.580;8.818;2023-04-25T04:57:16;98406.88;;;6.14;100.00
10921;BME280;5513;50.580;8.818;2023-04-25T04:59:45;98412.31;;;6.11;100.00
10921;BME280;5513;50.580;8.818;2023-04-25T05:02:13;98418.69;;;6.07;100.00
10921;BME280;5513;50.580;8.818;2023-04-25T05:04:43;98424.19;;;6.18;100.00
10921;BME280;5513;50.580;8.818;2023-04-25T05:07:11;98423.81;;;6.24;100.00
10921;BME280;5513;50.580;8.818;2023-04-25T05:09:40;98429.56;;;6.31;100.00
10921;BME280;5513;50.580;8.818;2023-04-25T05:12:08;98429.13;;;6.39;100.00
10921;BME280;5513;50.580;8.818;2023-04-25T05:14:37;98431.38;;;6.45;100.00
10921;BME280;5513;50.580;8.818;2023-04-25T05:17:05;98431.28;;;6.46;100.00
10921;BME280;5513;50.580;8.818;2023-04-25T05:19:35;98434.50;;;6.51;100.00
10921;BME280;5513;50.580;8.818;2023-04-25T05:22:04;98433.13;;;6.60;100.00
10921;BME280;5513;50.580;8.818;2023-04-25T05:24:33;98431.22;;;6.62;100.00
10921;BME280;5513;50.580;8.818;2023-04-25T05:27:01;98431.44;;;6.59;100.00
10921;BME280;5513;50.580;8.818;2023-04-25T05:29:29;98429.44;;;6.63;100.00
10921;BME280;5513;50.580;8.818;2023-04-25T05:31:57;98441.19;;;6.57;100.00
10921;BME280;5513;50.580;8.818;2023-04-25T05:34:25;98437.72;;;6.56;100.00
10921;BME280;5513;50.580;8.818;2023-04-25T05:36:54;98441.00;;;6.60;100.00
10921;BME280;5513;50.580;8.818;2023-04-25T05:39:23;98443.28;;;6.66;100.00
10921;BME280;5513;50.580;8.818;2023-04-25T05:41:51;98438.94;;;6.65;100.00
10921;BME280;5513;50.580;8.818;2023-04-25T05:44:19;98439.06;;;6.78;100.00
10921;BME280;5513;50.580;8.818;2023-04-25T05:46:48;98445.47;;;6.88;100.00
10921;BME280;5513;50.580;8.818;2023-04-25T05:49:16;98451.94;;;6.82;100.00
10921;BME280;5513;50.580;8.818;2023-04-25T05:51:45;98449.59;;;6.92;100.00
10921;BME280;5513;50.580;8.818;2023-04-25T05:54:13;98455.53;;;6.96;100.00
10921;BME280;5513;50.580;8.818;2023-04-25T05:56:43;98452.13;;;6.94;100.00
10921;BME280;5513;50.580;8.818;2023-04-25T05:59:11;98450.06;;;6.84;100.00
10921;BME280;5513;50.580;8.818;2023-04-25T06:01:39;98447.63;;;6.81;100.00
10921;BME280;5513;50.580;8.818;2023-04-25T06:04:08;98457.78;;;6.87;100.00
10921;BME280;5513;50.580;8.818;2023-04-25T06:06:36;98467.38;;;6.88;100.00
10921;BME280;5513;50.580;8.818;2023-04-25T06:09:04;98465.69;;;6.87;100.00
10921;BME280;5513;50.580;8.818;2023-04-25T06:11:33;98469.91;;;6.90;100.00
10921;BME280;5513;50.580;8.818;2023-04-25T06:14:03;98469.53;;;6.96;100.00
10921;BME280;5513;50.580;8.818;2023-04-25T06:16:31;98465.97;;;6.97;100.00
10921;BME280;5513;50.580;8.818;2023-04-25T06:18:59;98469.63;;;6.95;100.00
10921;BME280;5513;50.580;8.818;2023-04-25T06:21:28;98472.34;;;6.93;100.00
10921;BME280;5513;50.580;8.818;2023-04-25T06:23:56;98472.63;;;7.03;100.00
10921;BME280;5513;50.580;8.818;2023-04-25T06:26:24;98473.31;;;7.06;100.00
10921;BME280;5513;50.580;8.818;2023-04-25T06:28:52;98478.88;;;7.16;100.00
10921;BME280;5513;50.580;8.818;2023-04-25T06:31:22;98470.94;;;7.30;100.00
10921;BME280;5513;50.580;8.818;2023-04-25T06:33:50;98475.56;;;7.41;100.00
10921;BME280;5513;50.580;8.818;2023-04-25T06:36:21;98477.91;;;7.45;100.00
10921;BME280;5513;50.580;8.818;2023-04-25T06:38:51;98479.59;;;7.46;100.00
10921;BME280;5513;50.580;8.818;2023-04-25T06:41:20;98474.81;;;7.53;100.00
10921;BME280;5513;50.580;8.818;2023-04-25T06:43:48;98474.41;;;7.59;100.00
10921;BME280;5513;50.580;8.818;2023-04-25T06:46:16;98474.72;;;7.40;100.00
10921;BME280;5513;50.580;8.818;2023-04-25T06:48:46;98476.41;;;7.41;100.00
10921;BME280;5513;50.580;8.818;2023-04-25T06:51:15;98479.50;;;7.48;100.00
10921;BME280;5513;50.580;8.818;2023-04-25T06:53:43;98480.34;;;7.49;100.00
10921;BME280;5513;50.580;8.818;2023-04-25T06:56:11;98484.88;;;7.46;100.00
10921;BME280;5513;50.580;8.818;2023-04-25T06:58:39;98488.56;;;7.44;100.00
10921;BME280;5513;50.580;8.818;2023-04-25T07:01:07;98490.81;;;7.36;100.00
10921;BME280;5513;50.580;8.818;2023-04-25T07:03:35;98493.06;;;7.56;100.00
10921;BME280;5513;50.580;8.818;2023-04-25T07:06:06;98485.31;;;7.82;100.00
10921;BME280;5513;50.580;8.818;2023-04-25T07:08:35;98474.75;;;8.09;100.00
10921;BME280;5513;50.580;8.818;2023-04-25T07:11:03;98475.13;;;8.29;100.00
10921;BME280;5513;50.580;8.818;2023-04-25T07:13:31;98472.88;;;8.38;100.00
10921;BME280;5513;50.580;8.818;2023-04-25T07:15:59;98486.13;;;8.50;100.00
10921;BME280;5513;50.580;8.818;2023-04-25T07:18:28;98480.00;;;8.50;100.00
10921;BME280;5513;50.580;8.818;2023-04-25T07:20:56;98491.09;;;8.55;100.00
10921;BME280;5513;50.580;8.818;2023-04-25T07:23:26;98484.22;;;8.52;100.00
10921;BME280;5513;50.580;8.818;2023-04-25T07:25:54;98491.31;;;8.52;100.00
10921;BME280;5513;50.580;8.818;2023-04-25T07:28:22;98483.41;;;8.65;100.00
10921;BME280;5513;50.580;8.818;2023-04-25T07:30:50;98483.63;;;8.87;100.00
10921;BME280;5513;50.580;8.818;2023-04-25T07:33:19;98479.41;;;8.97;100.00
10921;BME280;5513;50.580;8.818;2023-04-25T07:35:48;98487.13;;;9.26;100.00
10921;BME280;5513;50.580;8.818;2023-04-25T07:38:16;98482.06;;;9.48;100.00
10921;BME280;5513;50.580;8.818;2023-04-25T07:40:47;98485.78;;;9.20;100.00
10921;BME280;5513;50.580;8.818;2023-04-25T07:43:15;98488.75;;;9.28;100.00
10921;BME280;5513;50.580;8.818;2023-04-25T07:45:43;98495.50;;;9.32;100.00
10921;BME280;5513;50.580;8.818;2023-04-25T07:48:13;98489.69;;;9.40;100.00
10921;BME280;5513;50.580;8.818;2023-04-25T07:50:44;98483.75;;;9.49;100.00
10921;BME280;5513;50.580;8.818;2023-04-25T07:53:12;98491.78;;;9.84;100.00
10921;BME280;5513;50.580;8.818;2023-04-25T07:55:41;98494.06;;;10.14;100.00
10921;BME280;5513;50.580;8.818;2023-04-25T07:58:11;98497.81;;;9.99;100.00
10921;BME280;5513;50.580;8.818;2023-04-25T08:00:40;98499.00;;;10.19;100.00
10921;BME280;5513;50.580;8.818;2023-04-25T08:03:09;98494.59;;;10.07;100.00
10921;BME280;5513;50.580;8.818;2023-04-25T08:05:38;98506.88;;;10.08;100.00
10921;BME280;5513;50.580;8.818;2023-04-25T08:08:06;98508.06;;;9.91;100.00
10921;BME280;5513;50.580;8.818;2023-04-25T08:10:35;98499.38;;;9.52;100.00
10921;BME280;5513;50.580;8.818;2023-04-25T08:13:03;98518.41;;;9.44;100.00
10921;BME280;5513;50.580;8.818;2023-04-25T08:15:33;98515.66;;;9.59;100.00
10921;BME280;5513;50.580;8.818;2023-04-25T08:18:03;98525.69;;;9.79;100.00
10921;BME280;5513;50.580;8.818;2023-04-25T08:20:31;98520.34;;;10.04;100.00
10921;BME280;5513;50.580;8.818;2023-04-25T08:23:00;98523.88;;;10.29;100.00
10921;BME280;5513;50.580;8.818;2023-04-25T08:25:28;98536.97;;;10.30;100.00
10921;BME280;5513;50.580;8.818;2023-04-25T08:27:56;98533.22;;;10.09;100.00
10921;BME280;5513;50.580;8.818;2023-04-25T08:30:26;98534.66;;;9.89;100.00
10921;BME280;5513;50.580;8.818;2023-04-25T08:32:56;98538.25;;;9.88;100.00
10921;BME280;5513;50.580;8.818;2023-04-25T08:35:24;98540.84;;;10.01;100.00
10921;BME280;5513;50.580;8.818;2023-04-25T08:37:52;98534.03;;;10.22;100.00
10921;BME280;5513;50.580;8.818;2023-04-25T08:40:22;98539.91;;;10.39;100.00
10921;BME280;5513;50.580;8.818;2023-04-25T08:42:56;98545.91;;;10.53;100.00
10921;BME280;5513;50.580;8.818;2023-04-25T08:45:27;98552.25;;;10.51;100.00
10921;BME280;5513;50.580;8.818;2023-04-25T08:47:57;98552.44;;;10.37;100.00
10921;BME280;5513;50.580;8.818;2023-04-25T08:50:27;98555.84;;;10.26;100.00
10921;BME280;5513;50.580;8.818;2023-04-25T08:52:59;98556.72;;;10.14;100.00
10921;BME280;5513;50.580;8.818;2023-04-25T08:55:30;98569.88;;;9.90;100.00
10921;BME280;5513;50.580;8.818;2023-04-25T08:57:59;98573.41;;;9.78;100.00
10921;BME280;5513;50.580;8.818;2023-04-25T09:00:28;98581.41;;;9.89;100.00
10921;BME280;5513;50.580;8.818;2023-04-25T09:02:58;98582.03;;;10.05;100.00
10921;BME280;5513;50.580;8.818;2023-04-25T09:05:28;98588.66;;;10.11;100.00
10921;BME280;5513;50.580;8.818;2023-04-25T09:07:56;98593.31;;;10.20;100.00
10921;BME280;5513;50.580;8.818;2023-04-25T09:10:25;98590.03;;;10.16;100.00
10921;BME280;5513;50.580;8.818;2023-04-25T09:13:05;98600.19;;;10.35;100.00
10921;BME280;5513;50.580;8.818;2023-04-25T09:15:47;98607.84;;;10.14;100.00
10921;BME280;5513;50.580;8.818;2023-04-25T09:18:23;98605.38;;;10.11;100.00
10921;BME280;5513;50.580;8.818;2023-04-25T09:20:58;98605.06;;;10.03;100.00
10921;BME280;5513;50.580;8.818;2023-04-25T09:23:41;98609.09;;;10.34;100.00
10921;BME280;5513;50.580;8.818;2023-04-25T09:26:10;98611.53;;;10.12;100.00
10921;BME280;5513;50.580;8.818;2023-04-25T09:28:39;98623.41;;;9.93;100.00
10921;BME280;5513;50.580;8.818;2023-04-25T09:31:09;98621.91;;;10.15;100.00
10921;BME280;5513;50.580;8.818;2023-04-25T09:33:40;98616.03;;;9.86;100.00
10921;BME280;5513;50.580;8.818;2023-04-25T09:36:09;98630.69;;;10.15;100.00
10921;BME280;5513;50.580;8.818;2023-04-25T09:38:41;98627.50;;;10.36;100.00
10921;BME280;5513;50.580;8.818;2023-04-25T09:41:10;98646.47;;;10.29;100.00
10921;BME280;5513;50.580;8.818;2023-04-25T09:43:39;98637.78;;;10.15;100.00
10921;BME280;5513;50.580;8.818;2023-04-25T09:46:08;98645.28;;;10.21;100.00
10921;BME280;5513;50.580;8.818;2023-04-25T09:48:39;98646.91;;;10.23;100.00
10921;BME280;5513;50.580;8.818;2023-04-25T09:51:09;98647.41;;;10.03;100.00
10921;BME280;5513;50.580;8.818;2023-04-25T09:53:38;98651.25;;;9.99;93.40
10921;BME280;5513;50.580;8.818;2023-04-25T09:56:11;98657.78;;;9.93;88.90
10921;BME280;5513;50.580;8.818;2023-04-25T09:58:41;98655.13;;;9.93;87.57
10921;BME280;5513;50.580;8.818;2023-04-25T10:01:10;98657.50;;;10.23;89.14
10921;BME280;5513;50.580;8.818;2023-04-25T10:03:43;98655.25;;;10.30;88.42
10921;BME280;5513;50.580;8.818;2023-04-25T10:06:19;98661.25;;;10.45;87.79
10921;BME280;5513;50.580;8.818;2023-04-25T10:08:50;98658.88;;;10.66;85.60
10921;BME280;5513;50.580;8.818;2023-04-25T10:11:18;98649.47;;;10.62;85.36
10921;BME280;5513;50.580;8.818;2023-04-25T10:13:47;98650.84;;;10.91;85.86
10921;BME280;5513;50.580;8.818;2023-04-25T10:16:16;98651.78;;;11.14;83.80
10921;BME280;5513;50.580;8.818;2023-04-25T10:18:46;98661.72;;;11.34;86.84
10921;BME280;5513;50.580;8.818;2023-04-25T10:21:15;98665.19;;;11.00;80.39
10921;BME280;5513;50.580;8.818;2023-04-25T10:23:44;98665.72;;;10.81;78.23
10921;BME280;5513;50.580;8.818;2023-04-25T10:26:13;98670.53;;;10.63;80.84
10921;BME280;5513;50.580;8.818;2023-04-25T10:28:56;98681.78;;;10.41;84.00
10921;BME280;5513;50.580;8.818;2023-04-25T10:31:25;98669.59;;;10.51;89.24
10921;BME280;5513;50.580;8.818;2023-04-25T10:33:57;98675.13;;;10.10;89.23
10921;BME280;5513;50.580;8.818;2023-04-25T10:36:31;98680.66;;;9.94;89.46
10921;BME280;5513;50.580;8.818;2023-04-25T10:39:03;98682.34;;;9.70;88.88
10921;BME280;5513;50.580;8.818;2023-04-25T10:41:46;98685.00;;;9.95;89.66
10921;BME280;5513;50.580;8.818;2023-04-25T10:44:14;98692.72;;;9.86;90.84
10921;BME280;5513;50.580;8.818;2023-04-25T10:46:44;98680.13;;;10.15;88.20
10921;BME280;5513;50.580;8.818;2023-04-25T10:52:14;98687.53;;;10.84;87.95
10921;BME280;5513;50.580;8.818;2023-04-25T10:54:46;98686.44;;;10.63;82.55
10921;BME280;5513;50.580;8.818;2023-04-25T10:57:37;98682.19;;;11.21;80.82
10921;BME280;5513;50.580;8.818;2023-04-25T11:00:08;98687.41;;;10.86;77.71
10921;BME280;5513;50.580;8.818;2023-04-25T11:02:40;98686.84;;;11.17;80.26
10921;BME280;5513;50.580;8.818;2023-04-25T11:05:09;98689.94;;;11.35;79.25
10921;BME280;5513;50.580;8.818;2023-04-25T11:07:45;98696.75;;;11.27;82.24
10921;BME280;5513;50.580;8.818;2023-04-25T11:10:33;98705.75;;;11.13;80.17
10921;BME280;5513;50.580;8.818;2023-04-25T11:13:02;98698.06;;;10.73;76.72
10921;BME280;5513;50.580;8.818;2023-04-25T11:15:31;98702.69;;;10.33;79.14
10921;BME280;5513;50.580;8.818;2023-04-25T11:17:59;98699.94;;;10.22;79.86
10921;BME280;5513;50.580;8.818;2023-04-25T11:20:36;98687.66;;;10.34;84.95
10921;BME280;5513;50.580;8.818;2023-04-25T11:23:05;98700.25;;;10.43;82.22
10921;BME280;5513;50.580;8.818;2023-04-25T11:25:33;98695.53;;;10.59;82.61
10921;BME280;5513;50.580;8.818;2023-04-25T11:28:04;98687.34;;;10.75;84.73
10921;BME280;5513;50.580;8.818;2023-04-25T11:30:32;98693.91;;;10.82;79.47
10921;BME280;5513;50.580;8.818;2023-04-25T11:33:00;98691.66;;;10.39;78.36
10921;BME280;5513;50.580;8.818;2023-04-25T11:35:30;98696.25;;;10.74;82.80
10921;BME280;5513;50.580;8.818;2023-04-25T11:38:01;98695.69;;;11.05;85.90
10921;BME280;5513;50.580;8.818;2023-04-25T11:40:31;98704.47;;;10.45;78.73
10921;BME280;5513;50.580;8.818;2023-04-25T11:43:00;98701.31;;;10.77;75.73
10921;BME280;5513;50.580;8.818;2023-04-25T11:45:29;98711.72;;;10.67;76.67
10921;BME280;5513;50.580;8.818;2023-04-25T11:47:57;98715.72;;;10.36;77.62
10921;BME280;5513;50.580;8.818;2023-04-25T11:50:28;98719.91;;;10.13;78.44
10921;BME280;5513;50.580;8.818;2023-04-25T11:52:56;98713.56;;;10.41;84.05
10921;BME280;5513;50.580;8.818;2023-04-25T11:55:25;98717.06;;;10.42;79.47
10921;BME280;5513;50.580;8.818;2023-04-25T11:57:54;98710.84;;;10.43;81.21
10921;BME280;5513;50.580;8.818;2023-04-25T12:00:24;98715.25;;;10.55;84.17
10921;BME280;5513;50.580;8.818;2023-04-25T12:02:54;98709.78;;;10.82;84.76
10921;BME280;5513;50.580;8.818;2023-04-25T12:05:24;98716.41;;;11.00;80.93
10921;BME280;5513;50.580;8.818;2023-04-25T12:08:10;98726.94;;;11.13;78.62
10921;BME280;5513;50.580;8.818;2023-04-25T12:10:40;98726.78;;;11.03;74.72
10921;BME280;5513;50.580;8.818;2023-04-25T12:13:24;98724.56;;;10.97;75.25
10921;BME280;5513;50.580;8.818;2023-04-25T12:15:55;98722.44;;;11.02;78.05
10921;BME280;5513;50.580;8.818;2023-04-25T12:18:24;98733.84;;;10.79;77.21
10921;BME280;5513;50.580;8.818;2023-04-25T12:20:54;98723.03;;;10.82;78.73
10921;BME280;5513;50.580;8.818;2023-04-25T12:23:26;98732.56;;;10.84;79.56
10921;BME280;5513;50.580;8.818;2023-04-25T12:25:55;98729.38;;;10.79;83.33
10921;BME280;5513;50.580;8.818;2023-04-25T12:28:26;98729.56;;;10.89;82.52
10921;BME280;5513;50.580;8.818;2023-04-25T12:30:55;98728.91;;;10.62;79.59
10921;BME280;5513;50.580;8.818;2023-04-25T12:33:26;98733.34;;;10.74;82.31
10921;BME280;5513;50.580;8.818;2023-04-25T12:35:54;98733.34;;;10.61;80.79
10921;BME280;5513;50.580;8.818;2023-04-25T12:38:25;98728.53;;;10.79;81.26
10921;BME280;5513;50.580;8.818;2023-04-25T12:40:54;98725.34;;;10.86;76.89
10921;BME280;5513;50.580;8.818;2023-04-25T12:43:22;98721.41;;;10.92;74.12
10921;BME280;5513;50.580;8.818;2023-04-25T12:45:54;98720.50;;;11.52;74.69
10921;BME280;5513;50.580;8.818;2023-04-25T12:48:23;98730.47;;;12.08;69.10
10921;BME280;5513;50.580;8.818;2023-04-25T12:50:52;98724.94;;;12.55;71.18
10921;BME280;5513;50.580;8.818;2023-04-25T12:53:21;98723.19;;;12.99;67.30
10921;BME280;5513;50.580;8.818;2023-04-25T12:55:51;98734.97;;;12.74;59.44
10921;BME280;5513;50.580;8.818;2023-04-25T12:58:24;98740.47;;;12.15;60.36
10921;BME280;5513;50.580;8.818;2023-04-25T13:00:54;98730.47;;;12.19;65.67
10921;BME280;5513;50.580;8.818;2023-04-25T13:03:22;98742.03;;;12.07;66.73
10921;BME280;5513;50.580;8.818;2023-04-25T13:05:51;98739.56;;;11.57;64.44
10921;BME280;5513;50.580;8.818;2023-04-25T13:08:21;98742.94;;;11.83;71.61
10921;BME280;5513;50.580;8.818;2023-04-25T13:10:49;98749.75;;;11.98;70.28
10921;BME280;5513;50.580;8.818;2023-04-25T13:13:17;98742.28;;;11.44;70.53
10921;BME280;5513;50.580;8.818;2023-04-25T13:15:45;98743.44;;;11.29;71.07
10921;BME280;5513;50.580;8.818;2023-04-25T13:18:15;98737.50;;;11.26;73.09
10921;BME280;5513;50.580;8.818;2023-04-25T13:20:44;98737.19;;;11.17;73.82
10921;BME280;5513;50.580;8.818;2023-04-25T13:23:12;98742.69;;;11.03;71.48
10921;BME280;5513;50.580;8.818;2023-04-25T13:25:41;98739.22;;;11.38;72.19